sensor_id;sensor_type;location;lat;lon;timestamp;P1;durP1;ratioP1;P2;durP2;ratioP2
50086;SDS011;35967;50.718;7.050;2023-04-01T00:07:46;0.73;;;0.20;;
50086;SDS011;35967;50.718;7.050;2023-04-01T00:17:49;2.70;;;0.20;;
50086;SDS011;35967;50.718;7.050;2023-04-01T00:27:54;4.80;;;0.20;;
50086;SDS011;35967;50.718;7.050;2023-04-01T00:37:57;2.00;;;0.30;;
50086;SDS011;35967;50.718;7.050;2023-04-01T00:48:03;1.33;;;0.43;;
50086;SDS011;35967;50.718;7.050;2023-04-01T00:58:11;1.60;;;0.23;;
50086;SDS011;35967;50.718;7.050;2023-04-01T01:08:21;0.77;;;0.17;;
50086;SDS011;35967;50.718;7.050;2023-04-01T01:18:33;0.43;;;0.10;;
50086;SDS011;35967;50.718;7.050;2023-04-01T01:28:44;0.73;;;0.20;;
50086;SDS011;35967;50.718;7.050;2023-04-01T01:39:01;0.90;;;0.15;;
50086;SDS011;35967;50.718;7.050;2023-04-01T01:49:06;0.40;;;0.10;;
50086;SDS011;35967;50.718;7.050;2023-04-01T01:59:11;3.10;;;0.37;;
50086;SDS011;35967;50.718;7.050;2023-04-01T02:09:17;1.23;;;0.10;;
50086;SDS011;35967;50.718;7.050;2023-04-01T02:19:22;1.73;;;0.20;;
50086;SDS011;35967;50.718;7.050;2023-04-01T02:29:33;0.57;;;0.10;;
50086;SDS011;35967;50.718;7.050;2023-04-01T02:39:42;0.97;;;0.10;;
50086;SDS011;35967;50.718;7.050;2023-04-01T02:49:45;1.00;;;0.10;;
50086;SDS011;35967;50.718;7.050;2023-04-01T02:59:49;0.43;;;0.00;;
50086;SDS011;35967;50.718;7.050;2023-04-01T03:09:52;0.80;;;0.40;;
50086;SDS011;35967;50.718;7.050;2023-04-01T03:19:56;1.00;;;0.10;;
50086;SDS011;35967;50.718;7.050;2023-04-01T03:30:00;0.77;;;0.03;;
50086;SDS011;35967;50.718;7.050;2023-04-01T03:40:06;0.50;;;0.07;;
50086;SDS011;35967;50.718;7.050;2023-04-01T03:50:10;0.63;;;0.10;;
50086;SDS011;35967;50.718;7.050;2023-04-01T04:00:15;0.00;;;0.00;;
50086;SDS011;35967;50.718;7.050;2023-04-01T04:10:22;0.10;;;0.00;;
50086;SDS011;35967;50.718;7.050;2023-04-01T04:20:27;0.30;;;0.00;;
50086;SDS011;35967;50.718;7.050;2023-04-01T04:30:31;0.10;;;0.00;;
50086;SDS011;35967;50.718;7.050;2023-04-01T04:40:36;0.47;;;0.03;;
50086;SDS011;35967;50.718;7.050;2023-04-01T04:50:40;0.33;;;0.00;;
50086;SDS011;35967;50.718;7.050;2023-04-01T05:00:45;0.10;;;0.00;;
50086;SDS011;35967;50.718;7.050;2023-04-01T05:10:57;0.00;;;0.00;;
50086;SDS011;35967;50.718;7.050;2023-04-01T05:21:01;0.00;;;0.00;;
50086;SDS011;35967;50.718;7.050;2023-04-01T05:31:05;0.00;;;0.00;;
50086;SDS011;35967;50.718;7.050;2023-04-01T05:41:13;2.57;;;0.00;;
50086;SDS011;35967;50.718;7.050;2023-04-01T05:51:20;0.20;;;0.00;;
50086;SDS011;35967;50.718;7.050;2023-04-01T06:01:25;1.70;;;0.10;;
50086;SDS011;35967;50.718;7.050;2023-04-01T06:11:30;0.10;;;0.10;;
50086;SDS011;35967;50.718;7.050;2023-04-01T06:32:25;0.27;;;0.10;;
50086;SDS011;35967;50.718;7.050;2023-04-01T06:42:49;1.05;;;0.00;;
50086;SDS011;35967;50.718;7.050;2023-04-01T06:53:35;0.20;;;0.10;;
50086;SDS011;35967;50.718;7.050;2023-04-01T07:04:09;0.70;;;0.20;;
50086;SDS011;35967;50.718;7.050;2023-04-01T07:14:19;0.67;;;0.30;;
50086;SDS011;35967;50.718;7.050;2023-04-01T07:24:27;0.90;;;0.30;;
50086;SDS011;35967;50.718;7.050;2023-04-01T07:34:42;0.73;;;0.13;;
50086;SDS011;35967;50.718;7.050;2023-04-01T07:44:54;1.77;;;0.10;;
50086;SDS011;35967;50.718;7.050;2023-04-01T07:55:09;0.63;;;0.20;;
50086;SDS011;35967;50.718;7.050;2023-04-01T08:05:22;0.70;;;0.10;;
50086;SDS011;35967;50.718;7.050;2023-04-01T08:15:34;0.43;;;0.30;;
50086;SDS011;35967;50.718;7.050;2023-04-01T08:25:54;1.47;;;0.30;;
50086;SDS011;35967;50.718;7.050;2023-04-01T08:36:10;0.43;;;0.30;;
50086;SDS011;35967;50.718;7.050;2023-04-01T08:46:35;0.83;;;0.30;;
50086;SDS011;35967;50.718;7.050;2023-04-01T08:56:57;0.30;;;0.20;;
50086;SDS011;35967;50.718;7.050;2023-04-01T09:07:11;0.40;;;0.20;;
50086;SDS011;35967;50.718;7.050;2023-04-01T09:17:42;1.30;;;0.43;;
50086;SDS011;35967;50.718;7.050;2023-04-01T09:28:02;1.27;;;0.30;;
50086;SDS011;35967;50.718;7.050;2023-04-01T09:38:19;2.50;;;0.60;;
50086;SDS011;35967;50.718;7.050;2023-04-01T09:59:16;0.27;;;0.17;;
50086;SDS011;35967;50.718;7.050;2023-04-01T10:20:52;0.90;;;0.20;;
50086;SDS011;35967;50.718;7.050;2023-04-01T10:41:46;1.13;;;0.17;;
50086;SDS011;35967;50.718;7.050;2023-04-01T10:52:53;1.53;;;0.20;;
50086;SDS011;35967;50.718;7.050;2023-04-01T11:03:56;0.60;;;0.30;;
50086;SDS011;35967;50.718;7.050;2023-04-01T11:15:09;0.50;;;0.20;;
50086;SDS011;35967;50.718;7.050;2023-04-01T11:36:30;1.80;;;0.23;;
50086;SDS011;35967;50.718;7.050;2023-04-01T11:46:55;1.80;;;0.80;;
50086;SDS011;35967;50.718;7.050;2023-04-01T11:57:10;1.20;;;0.40;;
50086;SDS011;35967;50.718;7.050;2023-04-01T12:07:41;0.93;;;0.30;;
50086;SDS011;35967;50.718;7.050;2023-04-01T12:18:09;0.90;;;0.30;;
50086;SDS011;35967;50.718;7.050;2023-04-01T12:39:20;1.00;;;0.33;;
50086;SDS011;35967;50.718;7.050;2023-04-01T12:49:38;1.30;;;0.37;;
50086;SDS011;35967;50.718;7.050;2023-04-01T13:00:02;0.57;;;0.33;;
50086;SDS011;35967;50.718;7.050;2023-04-01T13:21:13;1.23;;;0.40;;
50086;SDS011;35967;50.718;7.050;2023-04-01T13:31:26;2.97;;;1.40;;
50086;SDS011;35967;50.718;7.050;2023-04-01T13:41:45;2.70;;;0.50;;
50086;SDS011;35967;50.718;7.050;2023-04-01T14:02:46;1.00;;;0.30;;
50086;SDS011;35967;50.718;7.050;2023-04-01T14:13:01;0.57;;;0.35;;
50086;SDS011;35967;50.718;7.050;2023-04-01T14:33:43;0.60;;;0.30;;
50086;SDS011;35967;50.718;7.050;2023-04-01T14:44:09;0.50;;;0.30;;
50086;SDS011;35967;50.718;7.050;2023-04-01T14:54:21;2.87;;;0.40;;
50086;SDS011;35967;50.718;7.050;2023-04-01T15:04:43;0.40;;;0.27;;
50086;SDS011;35967;50.718;7.050;2023-04-01T15:14:59;0.83;;;0.30;;
50086;SDS011;35967;50.718;7.050;2023-04-01T15:25:21;1.40;;;0.33;;
50086;SDS011;35967;50.718;7.050;2023-04-01T15:35:34;2.60;;;0.30;;
50086;SDS011;35967;50.718;7.050;2023-04-01T15:45:49;0.20;;;0.10;;
50086;SDS011;35967;50.718;7.050;2023-04-01T15:55:59;0.47;;;0.20;;
50086;SDS011;35967;50.718;7.050;2023-04-01T16:06:16;0.70;;;0.30;;
50086;SDS011;35967;50.718;7.050;2023-04-01T16:16:30;1.63;;;0.47;;
50086;SDS011;35967;50.718;7.050;2023-04-01T16:26:47;1.20;;;0.40;;
50086;SDS011;35967;50.718;7.050;2023-04-01T16:36:59;1.23;;;0.50;;
50086;SDS011;35967;50.718;7.050;2023-04-01T16:47:08;0.60;;;0.40;;
50086;SDS011;35967;50.718;7.050;2023-04-01T16:57:19;3.90;;;0.40;;
50086;SDS011;35967;50.718;7.050;2023-04-01T17:07:29;0.50;;;0.30;;
50086;SDS011;35967;50.718;7.050;2023-04-01T17:17:45;0.73;;;0.40;;
50086;SDS011;35967;50.718;7.050;2023-04-01T17:27:55;1.00;;;0.30;;
50086;SDS011;35967;50.718;7.050;2023-04-01T17:38:06;2.97;;;0.50;;
50086;SDS011;35967;50.718;7.050;2023-04-01T17:48:34;3.53;;;1.00;;
50086;SDS011;35967;50.718;7.050;2023-04-01T17:58:45;3.30;;;0.80;;
50086;SDS011;35967;50.718;7.050;2023-04-01T18:08:54;2.50;;;0.90;;
50086;SDS011;35967;50.718;7.050;2023-04-01T18:19:02;1.50;;;0.90;;
50086;SDS011;35967;50.718;7.050;2023-04-01T18:29:17;2.00;;;0.80;;
50086;SDS011;35967;50.718;7.050;2023-04-01T18:39:32;3.50;;;0.90;;
50086;SDS011;35967;50.718;7.050;2023-04-01T18:49:43;3.83;;;1.10;;
50086;SDS011;35967;50.718;7.050;2023-04-01T18:59:55;2.37;;;0.90;;
50086;SDS011;35967;50.718;7.050;2023-04-01T19:10:13;2.10;;;1.10;;
50086;SDS011;35967;50.718;7.050;2023-04-01T19:20:20;2.17;;;1.30;;
50086;SDS011;35967;50.718;7.050;2023-04-01T19:30:35;2.40;;;1.33;;
50086;SDS011;35967;50.718;7.050;2023-04-01T19:40:52;2.20;;;1.30;;
50086;SDS011;35967;50.718;7.050;2023-04-01T19:51:00;2.70;;;1.40;;
50086;SDS011;35967;50.718;7.050;2023-04-01T20:01:09;2.53;;;1.40;;
50086;SDS011;35967;50.718;7.050;2023-04-01T20:11:21;1.93;;;1.10;;
50086;SDS011;35967;50.718;7.050;2023-04-01T20:21:34;3.27;;;0.80;;
50086;SDS011;35967;50.718;7.050;2023-04-01T20:31:41;2.43;;;1.10;;
50086;SDS011;35967;50.718;7.050;2023-04-01T20:41:52;1.77;;;0.70;;
50086;SDS011;35967;50.718;7.050;2023-04-01T20:52:15;1.40;;;0.50;;
50086;SDS011;35967;50.718;7.050;2023-04-01T21:02:32;1.77;;;0.77;;
50086;SDS011;35967;50.718;7.050;2023-04-01T21:12:50;1.50;;;0.40;;
50086;SDS011;35967;50.718;7.050;2023-04-01T21:23:03;3.87;;;0.53;;
50086;SDS011;35967;50.718;7.050;2023-04-01T21:33:26;0.87;;;0.50;;
50086;SDS011;35967;50.718;7.050;2023-04-01T21:43:45;0.43;;;0.37;;
50086;SDS011;35967;50.718;7.050;2023-04-01T21:54:10;1.23;;;0.50;;
50086;SDS011;35967;50.718;7.050;2023-04-01T22:04:39;1.40;;;0.70;;
50086;SDS011;35967;50.718;7.050;2023-04-01T22:15:00;1.57;;;1.23;;
50086;SDS011;35967;50.718;7.050;2023-04-01T22:25:12;1.90;;;0.70;;
50086;SDS011;35967;50.718;7.050;2023-04-01T22:35:25;1.57;;;0.80;;
50086;SDS011;35967;50.718;7.050;2023-04-01T22:45:46;1.57;;;0.70;;
50086;SDS011;35967;50.718;7.050;2023-04-01T22:56:05;1.40;;;0.60;;
50086;SDS011;35967;50.718;7.050;2023-04-01T23:06:15;2.00;;;0.50;;
50086;SDS011;35967;50.718;7.050;2023-04-01T23:16:24;2.20;;;0.47;;
50086;SDS011;35967;50.718;7.050;2023-04-01T23:26:34;1.20;;;0.50;;
50086;SDS011;35967;50.718;7.050;2023-04-01T23:36:43;1.50;;;0.70;;
50086;SDS011;35967;50.718;7.050;2023-04-01T23:46:48;1.07;;;0.57;;
50086;SDS011;35967;50.718;7.050;2023-04-01T23:56:55;1.20;;;0.60;;
